Happy Valley, New Mexico
Current Conditions -  °F | °C
As of 9:37 AM on Tuesday 21 Oct 2014 (Local Time) from KCNM Reporting Station
Haze Haze  
Wind Chill: 63°   Ceiling: 900
Heat Index: 63°   Visibility: 5mi
Dew Point: 60°   Wind: 3mph
Humidity: 90%   Direction: 120°ESE
Pressure: 30.12"   Gusts: NA
Location:  32.3187°N, 104.429°W
Report Text: KCNM 211537Z AUTO 12003KT 5SM BR OVC009 17/16 A3012 RMK AO2 CIG 007V012 T01720156
Loading
Personal Weather Stations






























Interactive Weather Map
Tropical Storm Tracking
New forecast layout! Learn more

10-Day Weather Forecast

Advertisements
Track Severe Weather on mobile